createdAt,value
2023-11-13T00:00:14.150Z,99881.53
2023-11-13T00:02:42.684Z,99886.78
2023-11-13T00:05:10.642Z,99881.53
2023-11-13T00:07:38.346Z,99870.34
2023-11-13T00:10:09.621Z,99874.75
2023-11-13T00:12:37.865Z,99874.91
2023-11-13T00:15:08.160Z,99876.50
2023-11-13T00:17:36.011Z,99864.44
2023-11-13T00:20:06.987Z,99865.28
2023-11-13T00:22:35.411Z,99865.41
2023-11-13T00:25:03.214Z,99868.84
2023-11-13T00:27:30.973Z,99858.38
2023-11-13T00:29:58.950Z,99850.69
2023-11-13T00:32:28.189Z,99827.38
2023-11-13T00:34:56.257Z,99826.00
2023-11-13T00:37:24.404Z,99823.84
2023-11-13T00:39:52.185Z,99822.94
2023-11-13T00:42:20.834Z,99823.06
2023-11-13T00:44:49.284Z,99817.84
2023-11-13T00:47:17.018Z,99810.34
2023-11-13T00:49:46.996Z,99812.09
2023-11-13T00:52:15.087Z,99810.34
2023-11-13T00:54:43.904Z,99818.09
2023-11-13T00:57:11.600Z,99822.44
2023-11-13T00:59:39.374Z,99829.19
2023-11-13T01:02:07.231Z,99822.25
2023-11-13T01:04:35.020Z,99820.31
2023-11-13T01:07:04.393Z,99816.03
2023-11-13T01:09:32.593Z,99818.59
2023-11-13T01:12:00.596Z,99800.44
2023-11-13T01:14:28.532Z,99797.97
2023-11-13T01:16:58.200Z,99784.84
2023-11-13T01:19:26.176Z,99795.22
2023-11-13T01:21:55.522Z,99791.78
2023-11-13T01:24:24.730Z,99789.31
2023-11-13T01:26:54.193Z,99790.09
2023-11-13T01:29:22.177Z,99792.75
2023-11-13T01:31:50.352Z,99794.38
2023-11-13T01:34:18.357Z,99784.84
2023-11-13T01:36:46.348Z,99787.47
2023-11-13T01:39:14.829Z,99783.88
2023-11-13T01:41:45.043Z,99783.91
2023-11-13T01:44:12.947Z,99780.44
2023-11-13T01:46:40.793Z,99774.31
2023-11-13T01:49:08.757Z,99771.78
2023-11-13T01:51:37.162Z,99776.88
2023-11-13T01:54:07.171Z,99769.22
2023-11-13T01:56:36.094Z,99762.34
2023-11-13T01:59:05.824Z,99766.63
2023-11-13T02:01:34.033Z,99767.47
2023-11-13T02:04:02.032Z,99761.47
2023-11-13T02:06:29.845Z,99763.19
2023-11-13T02:08:57.657Z,99758.91
2023-11-13T02:11:27.521Z,99752.13
2023-11-13T02:13:55.855Z,99745.22
2023-11-13T02:16:26.150Z,99749.44
2023-11-13T02:18:54.709Z,99740.72
2023-11-13T02:21:22.577Z,99741.63
2023-11-13T02:23:53.982Z,99734.72
2023-11-13T02:26:23.834Z,99728.63
2023-11-13T02:28:51.648Z,99726.72
2023-11-13T02:31:19.749Z,99713.13
2023-11-13T02:33:47.582Z,99712.09
2023-11-13T02:36:15.352Z,99719.97
2023-11-13T02:38:43.130Z,99726.13
2023-11-13T02:41:12.847Z,99724.31
2023-11-13T02:43:41.160Z,99713.94
2023-11-13T02:46:09.044Z,99721.59
2023-11-13T02:48:36.822Z,99727.56
2023-11-13T02:51:05.065Z,99725.03
2023-11-13T02:53:32.803Z,99720.72
2023-11-13T02:56:01.079Z,99718.94
2023-11-13T02:58:30.279Z,99722.28
2023-11-13T03:01:00.157Z,99717.22
2023-11-13T03:03:28.349Z,99713.84
2023-11-13T03:05:56.555Z,99712.97
2023-11-13T03:08:24.733Z,99718.94
2023-11-13T03:10:52.971Z,99731.84
2023-11-13T03:13:20.790Z,99728.41
2023-11-13T03:15:51.009Z,99726.69
2023-11-13T03:18:19.412Z,99722.44
2023-11-13T03:20:47.431Z,99718.19
2023-11-13T03:23:15.651Z,99718.84
2023-11-13T03:25:43.449Z,99732.41
2023-11-13T03:28:11.363Z,99730.66
2023-11-13T03:30:39.872Z,99726.41
2023-11-13T03:33:09.495Z,99734.19
2023-11-13T03:35:38.819Z,99729.91
2023-11-13T03:38:06.567Z,99735.88
2023-11-13T03:40:34.326Z,99739.31
2023-11-13T03:43:02.716Z,99739.38
2023-11-13T03:45:30.457Z,99737.59
2023-11-13T03:47:58.578Z,99734.91
2023-11-13T03:50:27.918Z,99735.75
2023-11-13T03:52:56.082Z,99733.19
2023-11-13T03:55:24.068Z,99741.78
2023-11-13T03:57:52.855Z,99738.34
2023-11-13T04:00:21.328Z,99735.75
2023-11-13T04:02:50.270Z,99738.34
2023-11-13T04:05:18.870Z,99730.59
2023-11-13T04:07:48.137Z,99722.84
2023-11-13T04:10:17.281Z,99721.16
2023-11-13T04:12:45.619Z,99722.84
2023-11-13T04:15:14.886Z,99724.50
2023-11-13T04:17:43.145Z,99725.25
2023-11-13T04:20:14.193Z,99727.16
2023-11-13T04:22:42.477Z,99732.28
2023-11-13T04:25:13.204Z,99729.38
2023-11-13T04:27:42.335Z,99741.38
2023-11-13T04:30:10.951Z,99735.44
2023-11-13T04:32:38.820Z,99736.09
2023-11-13T04:35:07.978Z,99745.44
2023-11-13T04:37:35.961Z,99739.47
2023-11-13T04:40:06.185Z,99743.56
2023-11-13T04:42:36.582Z,99740.31
2023-11-13T04:45:05.174Z,99744.63
2023-11-13T04:47:33.522Z,99749.69
2023-11-13T04:50:01.794Z,99745.78
2023-11-13T04:52:30.034Z,99749.50
2023-11-13T04:54:57.811Z,99739.88
2023-11-13T04:57:25.864Z,99752.09
2023-11-13T04:59:55.147Z,99748.66
2023-11-13T05:02:23.852Z,99754.34
2023-11-13T05:04:51.644Z,99740.81
2023-11-13T05:07:19.841Z,99745.19
2023-11-13T05:09:48.719Z,99738.94
2023-11-13T05:12:17.241Z,99741.44
2023-11-13T05:14:45.001Z,99729.50
2023-11-13T05:17:14.413Z,99740.56
2023-11-13T05:19:42.526Z,99727.44
2023-11-13T05:22:10.922Z,99732.75
2023-11-13T05:24:39.979Z,99736.19
2023-11-13T05:27:07.729Z,99735.88
2023-11-13T05:29:35.535Z,99752.13
2023-11-13T05:32:03.502Z,99765.06
2023-11-13T05:34:33.259Z,99759.00
2023-11-13T05:37:01.239Z,99755.31
2023-11-13T05:39:29.050Z,99758.00
2023-11-13T05:41:56.986Z,99751.94
2023-11-13T05:44:24.753Z,99771.00
2023-11-13T05:46:52.502Z,99777.91
2023-11-13T05:49:20.438Z,99784.78
2023-11-13T05:51:50.805Z,99787.38
2023-11-13T05:54:19.441Z,99795.09
2023-11-13T05:56:47.271Z,99794.25
2023-11-13T05:59:16.155Z,99796.66
2023-11-13T06:01:44.279Z,99794.91
2023-11-13T06:04:12.265Z,99790.50
2023-11-13T06:06:39.983Z,99811.22
2023-11-13T06:09:13.051Z,99813.78
2023-11-13T06:11:41.184Z,99807.72
2023-11-13T06:14:09.119Z,99812.91
2023-11-13T06:16:37.462Z,99818.03
2023-11-13T06:19:08.602Z,99820.50
2023-11-13T06:21:36.628Z,99820.38
2023-11-13T06:24:04.834Z,99818.66
2023-11-13T06:26:34.113Z,99822.19
2023-11-13T06:29:02.754Z,99820.38
2023-11-13T06:31:30.539Z,99816.88
2023-11-13T06:33:58.770Z,99807.31
2023-11-13T06:36:26.606Z,99820.06
2023-11-13T06:38:54.388Z,99814.72
2023-11-13T06:41:22.337Z,99817.13
2023-11-13T06:43:54.929Z,99824.75
2023-11-13T06:46:23.167Z,99833.25
2023-11-13T06:48:51.453Z,99840.00
2023-11-13T06:51:20.688Z,99840.97
2023-11-13T06:53:48.558Z,99853.00
2023-11-13T06:56:16.526Z,99857.16
2023-11-13T06:58:44.444Z,99861.31
2023-11-13T07:01:15.209Z,99863.00
2023-11-13T07:03:44.557Z,99852.53
2023-11-13T07:06:13.179Z,99843.84
2023-11-13T07:08:41.718Z,99833.25
2023-11-13T07:11:10.175Z,99821.06
2023-11-13T07:13:39.603Z,99825.34
2023-11-13T07:16:10.470Z,99824.31
2023-11-13T07:18:40.256Z,99836.28
2023-11-13T07:21:08.435Z,99836.19
2023-11-13T07:23:38.138Z,99832.75
2023-11-13T07:26:06.470Z,99823.25
2023-11-13T07:28:34.606Z,99827.38
2023-11-13T07:31:02.814Z,99841.19
2023-11-13T07:33:30.506Z,99835.88
2023-11-13T07:36:00.710Z,99831.34
2023-11-13T07:38:28.463Z,99833.84
2023-11-13T07:40:56.405Z,99827.69
2023-11-13T07:43:24.306Z,99823.22
2023-11-13T07:45:54.021Z,99826.66
2023-11-13T07:48:22.125Z,99819.72
2023-11-13T07:50:57.659Z,99817.13
2023-11-13T07:53:28.863Z,99817.97
2023-11-13T07:55:56.773Z,99824.72
2023-11-13T07:58:27.636Z,99832.13
2023-11-13T08:00:56.261Z,99833.53
2023-11-13T08:03:25.163Z,99840.28
2023-11-13T08:05:53.305Z,99828.91
2023-11-13T08:08:21.091Z,99836.56
2023-11-13T08:10:52.936Z,99821.66
2023-11-13T08:13:22.326Z,99809.06
2023-11-13T08:15:51.944Z,99811.25
2023-11-13T08:18:20.076Z,99803.31
2023-11-13T08:20:48.774Z,99804.81
2023-11-13T08:23:17.270Z,99796.53
2023-11-13T08:25:46.110Z,99798.28
2023-11-13T08:28:16.232Z,99786.78
2023-11-13T08:30:45.710Z,99793.38
2023-11-13T08:33:14.194Z,99787.22
2023-11-13T08:35:42.150Z,99785.88
2023-11-13T08:38:12.491Z,99791.00
2023-11-13T08:40:40.552Z,99797.81
2023-11-13T08:43:12.256Z,99791.00
2023-11-13T08:45:54.407Z,99774.44
2023-11-13T08:48:28.586Z,99774.00
2023-11-13T08:51:00.877Z,99762.09
2023-11-13T08:53:29.615Z,99758.28
2023-11-13T08:55:57.812Z,99763.25
2023-11-13T08:58:25.860Z,99762.13
2023-11-13T09:00:55.237Z,99752.72
2023-11-13T09:03:23.239Z,99746.56
2023-11-13T09:05:51.414Z,99742.97
2023-11-13T09:08:19.158Z,99737.63
2023-11-13T09:10:48.099Z,99727.25
2023-11-13T09:13:15.782Z,99734.34
2023-11-13T09:15:43.581Z,99719.13
2023-11-13T09:18:13.731Z,99726.41
2023-11-13T09:20:43.277Z,99747.66
2023-11-13T09:23:12.477Z,99725.50
2023-11-13T09:25:40.738Z,99730.06
2023-11-13T09:28:09.063Z,99740.75
2023-11-13T09:30:37.266Z,99730.84
2023-11-13T09:33:06.504Z,99729.06
2023-11-13T09:35:37.564Z,99735.50
2023-11-13T09:38:05.831Z,99739.22
2023-11-13T09:40:36.014Z,99736.97
2023-11-13T09:43:09.100Z,99732.22
2023-11-13T09:45:38.393Z,99736.97
2023-11-13T09:48:09.162Z,99729.63
2023-11-13T09:50:42.074Z,99723.44
2023-11-13T09:53:10.652Z,99719.91
2023-11-13T09:55:42.714Z,99711.91
2023-11-13T09:58:13.592Z,99701.72
2023-11-13T10:00:42.791Z,99697.44
2023-11-13T10:03:11.214Z,99697.38
2023-11-13T10:05:42.781Z,99697.91
2023-11-13T10:08:10.945Z,99690.03
2023-11-13T10:10:41.094Z,99683.16
2023-11-13T10:13:13.276Z,99679.94
2023-11-13T10:15:43.712Z,99671.91
2023-11-13T10:18:13.446Z,99663.97
2023-11-13T10:20:44.817Z,99665.47
2023-11-13T10:23:14.432Z,99669.03
2023-11-13T10:25:45.547Z,99661.00
2023-11-13T10:28:14.595Z,99656.53
2023-11-13T10:30:57.499Z,99651.34
2023-11-13T10:33:26.286Z,99642.72
2023-11-13T10:36:05.750Z,99649.59
2023-11-13T10:38:44.926Z,99624.50
2023-11-13T10:41:13.864Z,99618.28
2023-11-13T10:43:42.587Z,99615.38
2023-11-13T10:46:10.617Z,99612.78
2023-11-13T10:48:41.914Z,99610.44
2023-11-13T10:51:14.466Z,99618.22
2023-11-13T10:53:44.283Z,99611.34
2023-11-13T10:56:12.597Z,99609.41
2023-11-13T10:58:40.733Z,99597.19
2023-11-13T11:01:11.926Z,99598.78
2023-11-13T11:03:41.265Z,99592.50
2023-11-13T11:06:16.031Z,99583.69
2023-11-13T11:08:45.654Z,99575.63
2023-11-13T11:11:14.734Z,99572.88
2023-11-13T11:13:46.997Z,99566.72
2023-11-13T11:16:43.243Z,99556.84
2023-11-13T11:19:22.697Z,99548.03
2023-11-13T11:22:01.500Z,99541.41
2023-11-13T11:24:44.220Z,99525.88
2023-11-13T11:27:12.098Z,99508.66
2023-11-13T11:29:42.189Z,99510.06
2023-11-13T11:32:20.717Z,99508.63
2023-11-13T11:34:53.587Z,99497.94
2023-11-13T11:37:22.917Z,99497.50
2023-11-13T11:39:52.973Z,99488.72
2023-11-13T11:42:22.861Z,99486.81
2023-11-13T11:45:03.174Z,99487.09
2023-11-13T11:47:31.550Z,99470.47
2023-11-13T11:50:01.090Z,99463.47
2023-11-13T11:52:52.937Z,99449.34
2023-11-13T11:55:22.777Z,99446.31
2023-11-13T11:57:51.666Z,99435.22
2023-11-13T12:00:21.898Z,99441.34
2023-11-13T12:02:53.087Z,99436.63
2023-11-13T12:05:21.936Z,99430.19
2023-11-13T12:07:53.586Z,99422.38
2023-11-13T12:10:22.331Z,99419.78
2023-11-13T12:12:52.007Z,99424.63
2023-11-13T12:15:20.368Z,99425.00
2023-11-13T12:17:49.521Z,99415.59
2023-11-13T12:20:21.692Z,99408.78
2023-11-13T12:22:52.790Z,99405.44
2023-11-13T12:25:21.071Z,99400.09
2023-11-13T12:27:50.169Z,99404.03
2023-11-13T12:30:20.616Z,99398.56
2023-11-13T12:32:49.290Z,99400.94
2023-11-13T12:35:18.806Z,99395.50
2023-11-13T12:37:47.945Z,99397.69
2023-11-13T12:40:21.065Z,99394.16
2023-11-13T12:42:49.496Z,99393.16
2023-11-13T12:45:19.620Z,99384.81
2023-11-13T12:47:49.180Z,99380.38
2023-11-13T12:50:18.703Z,99377.63
2023-11-13T12:52:49.174Z,99370.56
2023-11-13T12:55:21.265Z,99374.47
2023-11-13T12:57:50.174Z,99368.03
2023-11-13T13:00:21.046Z,99362.19
2023-11-13T13:02:51.225Z,99361.25
2023-11-13T13:07:51.273Z,99353.25
2023-11-13T13:10:23.092Z,99360.84
2023-11-13T13:12:51.845Z,99349.44
2023-11-13T13:15:21.844Z,99356.56
2023-11-13T13:17:50.907Z,99353.75
2023-11-13T13:20:24.922Z,99341.84
2023-11-13T13:22:54.484Z,99338.69
2023-11-13T13:25:27.242Z,99340.47
2023-11-13T13:27:55.841Z,99336.06
2023-11-13T13:30:23.793Z,99339.44
2023-11-13T13:32:52.485Z,99337.03
2023-11-13T13:35:21.540Z,99339.09
2023-11-13T13:37:49.529Z,99336.91
2023-11-13T13:40:18.523Z,99334.44
2023-11-13T13:42:48.964Z,99329.00
2023-11-13T13:45:17.854Z,99326.09
2023-11-13T13:47:46.065Z,99319.41
2023-11-13T13:50:20.520Z,99313.06
2023-11-13T13:52:52.670Z,99309.41
2023-11-13T13:55:22.791Z,99302.41
2023-11-13T13:57:52.847Z,99304.63
2023-11-13T14:03:01.287Z,99300.53
2023-11-13T14:05:30.007Z,99297.63
2023-11-13T14:07:58.574Z,99297.41
2023-11-13T14:10:28.259Z,99282.16
2023-11-13T14:12:57.611Z,99289.44
2023-11-13T14:15:27.131Z,99291.03
2023-11-13T14:17:57.055Z,99278.88
2023-11-13T14:20:26.014Z,99280.81
2023-11-13T14:22:56.817Z,99269.09
2023-11-13T14:25:28.045Z,99259.22
2023-11-13T14:27:58.813Z,99259.84
2023-11-13T14:30:30.365Z,99253.16
2023-11-13T14:33:00.436Z,99252.22
2023-11-13T14:35:29.167Z,99249.94
2023-11-13T14:37:57.326Z,99243.44
2023-11-13T14:40:27.229Z,99241.63
2023-11-13T14:42:55.505Z,99245.09
2023-11-13T14:45:25.931Z,99239.28
2023-11-13T14:47:54.269Z,99242.13
2023-11-13T14:50:24.736Z,99231.69
2023-11-13T14:52:54.467Z,99242.63
2023-11-13T14:55:24.053Z,99241.91
2023-11-13T14:57:53.643Z,99235.66
2023-11-13T15:00:24.743Z,99226.66
2023-11-13T15:02:54.715Z,99211.69
2023-11-13T15:05:23.479Z,99179.72
2023-11-13T15:07:51.978Z,99124.00
2023-11-13T15:10:20.609Z,99167.47
2023-11-13T15:12:49.277Z,99142.13
2023-11-13T15:15:19.506Z,99124.44
2023-11-13T15:17:50.813Z,99115.16
2023-11-13T15:20:20.252Z,99113.50
2023-11-13T15:25:21.530Z,99140.25
2023-11-13T15:27:50.312Z,99134.22
2023-11-13T15:30:21.657Z,99139.91
2023-11-13T15:32:51.235Z,99135.75
2023-11-13T15:35:20.605Z,99143.13
2023-11-13T15:37:48.970Z,99141.28
2023-11-13T15:40:17.771Z,99137.59
2023-11-13T15:42:46.136Z,99125.91
2023-11-13T15:45:14.124Z,99123.97
2023-11-13T15:47:42.570Z,99118.19
2023-11-13T15:50:17.080Z,99116.63
2023-11-13T15:52:45.357Z,99115.81
2023-11-13T15:55:15.624Z,99126.00
2023-11-13T15:57:45.256Z,99133.28
2023-11-13T16:00:14.579Z,99129.25
2023-11-13T16:02:42.695Z,99119.94
2023-11-13T16:05:13.833Z,99125.69
2023-11-13T16:07:41.822Z,99113.03
2023-11-13T16:10:11.317Z,99110.16
2023-11-13T16:12:41.921Z,99102.75
2023-11-13T16:15:12.263Z,99093.81
2023-11-13T16:17:40.954Z,99080.91
2023-11-13T16:20:11.737Z,99086.25
2023-11-13T16:22:44.161Z,99102.41
2023-11-13T16:25:12.368Z,99103.25
2023-11-13T16:27:40.119Z,99092.66
2023-11-13T16:30:11.087Z,99106.78
2023-11-13T16:32:39.874Z,99092.31
2023-11-13T16:35:09.955Z,99105.66
2023-11-13T16:37:38.760Z,99097.81
2023-11-13T16:40:10.502Z,99098.78
2023-11-13T16:42:40.750Z,99072.28
2023-11-13T16:45:13.826Z,99059.59
2023-11-13T16:47:43.983Z,99060.16
2023-11-13T16:50:14.452Z,99072.91
2023-11-13T16:52:42.658Z,99074.19
2023-11-13T16:55:12.384Z,99072.41
2023-11-13T16:57:40.118Z,99057.78
2023-11-13T17:00:11.110Z,99059.69
2023-11-13T17:02:41.776Z,99055.66
2023-11-13T17:05:10.188Z,99046.25
2023-11-13T17:07:38.228Z,99058.94
2023-11-13T17:10:06.864Z,99076.97
2023-11-13T17:12:36.149Z,99066.41
2023-11-13T17:15:04.221Z,99064.66
2023-11-13T17:17:32.095Z,99074.03
2023-11-13T17:20:00.697Z,99077.50
2023-11-13T17:22:30.878Z,99088.00
2023-11-13T17:24:58.773Z,99093.50
2023-11-13T17:27:27.070Z,99103.28
2023-11-13T17:29:56.670Z,99084.03
2023-11-13T17:32:27.769Z,99070.41
2023-11-13T17:34:57.260Z,99063.28
2023-11-13T17:37:25.104Z,99058.75
2023-11-13T17:39:52.963Z,99051.84
2023-11-13T17:42:22.320Z,99041.63
2023-11-13T17:44:50.339Z,99044.00
2023-11-13T17:47:21.322Z,99040.31
2023-11-13T17:49:49.427Z,99045.19
2023-11-13T17:52:19.096Z,99039.25
2023-11-13T17:54:47.657Z,99046.28
2023-11-13T17:57:15.849Z,99065.88
2023-11-13T17:59:44.029Z,99060.78
2023-11-13T18:02:12.340Z,99051.50
2023-11-13T18:04:41.645Z,99057.91
2023-11-13T18:07:09.514Z,99048.91
2023-11-13T18:09:37.862Z,99044.09
2023-11-13T18:12:09.608Z,99044.22
2023-11-13T18:14:37.659Z,99050.78
2023-11-13T18:17:06.051Z,99049.81
2023-11-13T18:19:33.937Z,99054.09
2023-11-13T18:22:02.947Z,99069.19
2023-11-13T18:24:31.091Z,99067.56
2023-11-13T18:26:59.272Z,99059.94
2023-11-13T18:29:27.179Z,99072.53
2023-11-13T18:31:56.192Z,99068.63
2023-11-13T18:34:24.625Z,99064.94
2023-11-13T18:36:52.512Z,99074.56
2023-11-13T18:39:24.074Z,99065.50
2023-11-13T18:41:52.566Z,99056.56
2023-11-13T18:44:21.655Z,99058.56
2023-11-13T18:46:51.207Z,99058.41
2023-11-13T18:49:20.527Z,99058.72
2023-11-13T18:51:49.366Z,99074.75
2023-11-13T18:54:17.740Z,99070.50
2023-11-13T18:56:48.991Z,99084.13
2023-11-13T18:59:18.971Z,99088.03
2023-11-13T19:01:47.052Z,99106.28
2023-11-13T19:04:15.539Z,99118.94
2023-11-13T19:06:44.015Z,99135.13
2023-11-13T19:09:13.979Z,99142.13
2023-11-13T19:11:42.351Z,99161.28
2023-11-13T19:14:16.573Z,99150.44
2023-11-13T19:16:45.936Z,99146.28
2023-11-13T19:19:14.815Z,99164.63
2023-11-13T19:21:42.651Z,99179.28
2023-11-13T19:24:10.703Z,99208.88
2023-11-13T19:26:40.773Z,99207.53
2023-11-13T19:29:10.927Z,99205.59
2023-11-13T19:31:40.201Z,99196.28
2023-11-13T19:34:09.156Z,99199.16
2023-11-13T19:36:37.214Z,99221.69
2023-11-13T19:39:05.409Z,99212.00
2023-11-13T19:41:33.446Z,99213.88
2023-11-13T19:44:04.797Z,99226.22
2023-11-13T19:46:33.184Z,99230.28
2023-11-13T19:49:05.515Z,99249.56
2023-11-13T19:51:33.990Z,99232.84
2023-11-13T19:54:02.025Z,99240.91
2023-11-13T19:56:30.462Z,99242.66
2023-11-13T19:58:58.425Z,99257.09
2023-11-13T20:01:26.440Z,99258.31
2023-11-13T20:03:55.257Z,99255.22
2023-11-13T20:06:25.963Z,99243.09
2023-11-13T20:08:55.285Z,99229.31
2023-11-13T20:11:23.654Z,99227.56
2023-11-13T20:13:51.548Z,99234.91
2023-11-13T20:16:19.929Z,99232.78
2023-11-13T20:18:48.751Z,99230.09
2023-11-13T20:21:17.008Z,99228.00
2023-11-13T20:23:46.125Z,99225.50
2023-11-13T20:26:14.004Z,99233.09
2023-11-13T20:28:42.070Z,99236.69
2023-11-13T20:31:10.391Z,99238.22
2023-11-13T20:33:39.181Z,99239.91
2023-11-13T20:36:07.989Z,99252.81
2023-11-13T20:38:36.197Z,99254.53
2023-11-13T20:41:05.895Z,99262.66
2023-11-13T20:43:34.049Z,99261.50
2023-11-13T20:46:04.045Z,99265.06
2023-11-13T20:48:31.928Z,99280.59
2023-11-13T20:51:00.212Z,99279.66
2023-11-13T20:53:28.608Z,99283.84
2023-11-13T20:55:56.538Z,99295.38
2023-11-13T20:58:26.136Z,99281.09
2023-11-13T21:00:54.893Z,99292.78
2023-11-13T21:03:23.232Z,99301.94
2023-11-13T21:06:02.359Z,99303.69
2023-11-13T21:08:35.577Z,99307.75
2023-11-13T21:11:06.745Z,99326.50
2023-11-13T21:13:36.102Z,99337.13
2023-11-13T21:16:03.976Z,99331.69
2023-11-13T21:18:32.635Z,99340.53
2023-11-13T21:21:01.153Z,99344.31
2023-11-13T21:23:29.890Z,99346.38
2023-11-13T21:26:00.217Z,99342.66
2023-11-13T21:28:28.659Z,99346.13
2023-11-13T21:30:57.935Z,99355.25
2023-11-13T21:33:26.440Z,99354.31
2023-11-13T21:35:54.892Z,99370.31
2023-11-13T21:38:23.130Z,99376.44
2023-11-13T21:40:51.322Z,99381.28
2023-11-13T21:43:21.731Z,99397.81
2023-11-13T21:45:51.616Z,99408.06
2023-11-13T21:48:20.847Z,99414.84
2023-11-13T21:50:48.682Z,99410.50
2023-11-13T21:53:18.556Z,99411.88
2023-11-13T21:55:46.431Z,99424.63
2023-11-13T21:58:14.337Z,99433.72
2023-11-13T22:00:43.560Z,99435.69
2023-11-13T22:03:12.599Z,99444.44
2023-11-13T22:05:44.289Z,99457.44
2023-11-13T22:08:12.288Z,99454.47
2023-11-13T22:10:40.740Z,99468.03
2023-11-13T22:13:08.988Z,99468.69
2023-11-13T22:15:37.953Z,99478.69
2023-11-13T22:18:09.553Z,99474.06
2023-11-13T22:20:37.866Z,99480.72
2023-11-13T22:23:09.232Z,99475.38
2023-11-13T22:25:37.681Z,99480.53
2023-11-13T22:28:05.648Z,99479.03
2023-11-13T22:30:34.222Z,99477.13
2023-11-13T22:33:02.495Z,99475.91
2023-11-13T22:35:30.939Z,99461.59
2023-11-13T22:37:58.777Z,99464.50
2023-11-13T22:40:28.156Z,99467.84
2023-11-13T22:42:55.957Z,99475.44
2023-11-13T22:45:24.726Z,99488.28
2023-11-13T22:47:52.702Z,99487.66
2023-11-13T22:50:20.437Z,99486.13
2023-11-13T22:52:48.515Z,99486.59
2023-11-13T22:55:16.532Z,99490.06
2023-11-13T22:57:46.594Z,99483.56
2023-11-13T23:00:20.533Z,99488.00
2023-11-13T23:02:50.407Z,99486.97
2023-11-13T23:05:18.432Z,99480.97
2023-11-13T23:07:48.268Z,99490.75
2023-11-13T23:10:16.147Z,99490.75
2023-11-13T23:12:46.699Z,99490.34
2023-11-13T23:15:14.774Z,99494.06
2023-11-13T23:17:42.679Z,99492.91
2023-11-13T23:20:12.480Z,99492.09
2023-11-13T23:22:40.488Z,99484.88
2023-11-13T23:25:09.773Z,99488.84
2023-11-13T23:27:38.737Z,99501.06
2023-11-13T23:30:10.092Z,99508.03
2023-11-13T23:32:38.162Z,99502.34
2023-11-13T23:35:07.692Z,99505.44
2023-11-13T23:37:35.620Z,99509.53
2023-11-13T23:40:05.929Z,99514.06
2023-11-13T23:42:34.336Z,99513.59
2023-11-13T23:45:02.158Z,99522.25
2023-11-13T23:47:35.612Z,99527.31
2023-11-13T23:50:04.942Z,99525.50
2023-11-13T23:52:32.902Z,99529.13
2023-11-13T23:55:00.927Z,99529.13
2023-11-13T23:57:29.236Z,99531.63
2023-11-13T23:59:57.015Z,99526.44
